Time;durP1;ratioP1;P1;durP2;ratioP2;P2;SDS_P1;SDS_P2;PMS_P1;PMS_P2;Temp;Humidity;BMP_temperature;BMP_pressure;BME280_temperature;BME280_humidity;BME280_pressure;Samples;Min_cycle;Max_cycle;Signal;HPM_P1;HPM_P2
2023/05/26 00:00:39;;;;;;;8.77;5.13;;;;;;;9.76;100.00;97912.66;4998005;28;20107;-62
2023/05/26 00:03:07;;;;;;;11.82;5.70;;;;;;;9.84;100.00;97914.19;5002628;28;20042;-62
2023/05/26 00:05:39;;;;;;;8.43;4.78;;;;;;;9.78;100.00;97914.31;4998796;28;20035;-62
2023/05/26 00:08:09;;;;;;;9.30;5.10;;;;;;;9.71;100.00;97914.41;5001326;28;20052;-62
2023/05/26 00:10:36;;;;;;;11.00;4.97;;;;;;;9.72;100.00;97911.47;4998033;28;20041;-62
2023/05/26 00:13:03;;;;;;;10.65;4.97;;;;;;;9.70;100.00;97912.78;4989615;28;20057;-62
2023/05/26 00:15:30;;;;;;;6.00;3.97;;;;;;;9.80;100.00;97912.19;4995106;28;20026;-61
2023/05/26 00:18:01;;;;;;;8.13;4.30;;;;;;;9.81;100.00;97914.69;5004937;28;20046;-62
2023/05/26 00:20:28;;;;;;;8.82;4.55;;;;;;;9.70;99.63;97910.06;5000127;28;20501;-62
2023/05/26 00:22:55;;;;;;;9.02;5.00;;;;;;;9.65;100.00;97916.16;5003777;28;20552;-62
2023/05/26 00:25:22;;;;;;;9.57;5.45;;;;;;;9.76;99.96;97917.22;4995918;28;20042;-62
2023/05/26 00:27:49;;;;;;;9.80;4.93;;;;;;;9.71;100.00;97914.41;4997954;28;20053;-61
2023/05/26 00:30:16;;;;;;;12.45;5.45;;;;;;;9.70;100.00;97918.97;4995725;28;20042;-61
2023/05/26 00:32:43;;;;;;;9.15;4.20;;;;;;;9.81;100.00;97916.53;5003072;28;20045;-62
2023/05/26 00:35:09;;;;;;;9.00;4.75;;;;;;;9.86;99.43;97920.19;4996890;28;20038;-61
2023/05/26 00:37:36;;;;;;;9.82;4.57;;;;;;;9.93;99.45;97917.38;4988523;28;20073;-62
2023/05/26 00:40:04;;;;;;;11.57;4.68;;;;;;;9.82;99.97;97931.72;4986096;28;20066;-62
2023/05/26 00:42:30;;;;;;;7.75;4.63;;;;;;;9.83;99.96;97927.94;4998521;28;20046;-62
2023/05/26 00:44:57;;;;;;;7.88;4.78;;;;;;;9.67;100.00;97924.88;4990074;28;20056;-62
2023/05/26 00:47:23;;;;;;;9.18;4.75;;;;;;;9.75;100.00;97924.53;4992265;28;20046;-62
2023/05/26 00:49:51;;;;;;;9.05;4.20;;;;;;;9.95;99.82;97930.69;4983429;28;20051;-62
2023/05/26 00:52:19;;;;;;;11.77;5.10;;;;;;;10.11;98.92;97926.44;4999599;28;20085;-62
2023/05/26 00:54:46;;;;;;;7.40;4.63;;;;;;;10.27;98.69;97927.59;4998171;28;20045;-62
2023/05/26 00:57:12;;;;;;;8.02;4.47;;;;;;;10.36;97.43;97922.69;4996495;28;20627;-60
2023/05/26 00:59:39;;;;;;;8.07;4.30;;;;;;;10.37;97.48;97927.03;4995805;28;20164;-62
2023/05/26 01:02:06;;;;;;;10.68;4.90;;;;;;;10.34;98.13;97925.63;4998371;28;20705;-62
2023/05/26 01:04:34;;;;;;;7.43;4.22;;;;;;;10.44;97.44;97918.78;4983326;28;20110;-62
2023/05/26 01:07:02;;;;;;;7.93;4.90;;;;;;;10.45;97.93;97917.72;4997415;28;20064;-62
2023/05/26 01:09:29;;;;;;;8.13;4.45;;;;;;;10.61;96.94;97916.19;4989759;28;20039;-62
2023/05/26 01:12:13;;;;;;;11.20;4.38;;;;;;;10.63;97.30;97919.47;4994454;28;20041;-62
2023/05/26 01:15:00;;;;;;;9.40;4.13;;;;;;;10.63;97.71;97919.47;4994947;28;20120;-62
2023/05/26 01:17:32;;;;;;;9.65;4.60;;;;;;;10.68;96.76;97908.75;4979899;28;20046;-62
2023/05/26 01:20:11;;;;;;;8.07;4.60;;;;;;;10.73;96.81;97903.44;4999203;28;20516;-62
2023/05/26 01:22:51;;;;;;;8.55;4.70;;;;;;;10.74;96.99;97906.97;4998924;28;20046;-62
2023/05/26 01:25:44;;;;;;;10.10;4.95;;;;;;;10.83;96.57;97905.53;4982839;28;20042;-61
2023/05/26 01:28:21;;;;;;;9.32;4.38;;;;;;;10.82;97.17;97909.31;4998164;28;20046;-61
2023/05/26 01:30:49;;;;;;;13.60;4.60;;;;;;;10.87;97.38;97914.81;4983217;28;20038;-63
2023/05/26 01:33:16;;;;;;;8.70;4.57;;;;;;;10.87;96.23;97914.81;4990954;28;20054;-61
2023/05/26 01:35:43;;;;;;;12.38;4.72;;;;;;;10.86;95.90;97913.19;4984528;28;20101;-62
2023/05/26 01:38:10;;;;;;;8.18;4.60;;;;;;;10.91;95.80;97910.56;4996492;28;20049;-62
2023/05/26 01:40:40;;;;;;;8.45;4.28;;;;;;;10.94;95.66;97906.53;4991509;28;20121;-63
2023/05/26 01:43:28;;;;;;;8.18;4.15;;;;;;;11.06;95.98;97911.94;4992529;28;20560;-62
2023/05/26 01:46:05;;;;;;;8.63;4.18;;;;;;;11.01;96.00;97907.22;4982014;28;20038;-62
2023/05/26 01:48:34;;;;;;;10.82;4.90;;;;;;;10.91;95.25;97904.34;4988396;28;20097;-61
2023/05/26 01:51:02;;;;;;;8.75;4.32;;;;;;;10.87;96.65;97903.19;4997950;28;20073;-62
2023/05/26 01:53:32;;;;;;;9.15;4.35;;;;;;;10.92;96.30;97900.56;4995118;28;20048;-62
2023/05/26 01:56:00;;;;;;;8.15;4.68;;;;;;;10.98;95.70;97901.47;4974092;28;20437;-63
2023/05/26 01:58:28;;;;;;;8.57;4.90;;;;;;;11.00;95.08;97902.88;4994737;28;20034;-62
2023/05/26 02:00:58;;;;;;;8.32;4.80;;;;;;;10.88;96.97;97902.91;4981390;28;20137;-62
2023/05/26 02:03:24;;;;;;;9.65;4.75;;;;;;;10.76;95.90;97908.38;4995831;28;20054;-61
2023/05/26 02:05:51;;;;;;;8.75;4.70;;;;;;;10.84;96.12;97912.59;4987201;28;20212;-60
2023/05/26 02:08:19;;;;;;;10.93;5.63;;;;;;;10.73;97.21;97908.03;4992910;28;20510;-62
2023/05/26 02:10:45;;;;;;;10.15;4.50;;;;;;;10.78;97.34;97910.84;4999886;28;20048;-60
2023/05/26 02:13:12;;;;;;;11.80;4.97;;;;;;;10.82;96.69;97905.75;4991834;28;20184;-62
2023/05/26 02:15:39;;;;;;;8.95;4.60;;;;;;;10.90;95.57;97903.50;4992955;28;20138;-61
2023/05/26 02:18:06;;;;;;;13.52;5.32;;;;;;;10.91;95.96;97912.47;4986301;28;20816;-62
2023/05/26 02:20:33;;;;;;;10.18;4.72;;;;;;;10.90;95.58;97908.09;4982670;28;20058;-62
2023/05/26 02:22:59;;;;;;;10.80;4.50;;;;;;;10.90;95.08;97908.94;4989741;28;20046;-62
2023/05/26 02:25:26;;;;;;;8.10;4.30;;;;;;;10.95;96.02;97907.38;4992196;28;20030;-62
2023/05/26 02:27:53;;;;;;;10.93;5.20;;;;;;;11.00;95.24;97902.88;4997389;28;20046;-63
2023/05/26 02:30:19;;;;;;;7.82;3.95;;;;;;;10.80;97.27;97904.13;4986682;28;20049;-63
2023/05/26 02:32:46;;;;;;;10.75;4.93;;;;;;;10.80;97.95;97906.03;4992562;28;20046;-62
2023/05/26 02:35:12;;;;;;;8.15;4.68;;;;;;;10.82;96.88;97912.00;4985895;28;20517;-62
2023/05/26 02:37:41;;;;;;;11.15;5.15;;;;;;;10.83;95.40;97907.44;5001110;28;20813;-62
2023/05/26 02:40:09;;;;;;;9.18;5.00;;;;;;;10.78;96.20;97914.38;4994019;28;20045;-61
2023/05/26 02:42:35;;;;;;;8.90;4.70;;;;;;;10.86;95.62;97912.34;4998804;28;20046;-62
2023/05/26 02:45:02;;;;;;;8.93;4.80;;;;;;;10.95;95.04;97915.50;4995268;28;20061;-62
2023/05/26 02:47:29;;;;;;;7.65;3.88;;;;;;;10.97;94.93;97914.19;4993020;28;20062;-62
2023/05/26 02:49:56;;;;;;;9.30;4.53;;;;;;;10.93;95.21;97908.44;4985891;28;20570;-62
2023/05/26 02:52:23;;;;;;;10.82;4.20;;;;;;;10.93;96.26;97905.75;4997877;28;20643;-63
2023/05/26 02:54:50;;;;;;;9.40;4.63;;;;;;;10.82;96.63;97906.59;4998035;28;20445;-62
2023/05/26 02:57:16;;;;;;;9.00;4.97;;;;;;;10.82;95.83;97905.75;4993906;28;20049;-61
2023/05/26 02:59:43;;;;;;;11.02;5.43;;;;;;;10.90;95.31;97908.94;4994959;28;20046;-62
2023/05/26 03:02:10;;;;;;;8.90;4.90;;;;;;;10.88;95.08;97905.63;4997778;28;20412;-62
2023/05/26 03:04:37;;;;;;;11.32;5.30;;;;;;;10.76;95.92;97904.84;4994347;28;20041;-61
2023/05/26 03:07:03;;;;;;;8.07;4.63;;;;;;;10.63;97.15;97897.81;4996140;28;20058;-61
2023/05/26 03:09:32;;;;;;;10.40;4.97;;;;;;;10.49;98.47;97897.25;4992783;28;20172;-61
2023/05/26 03:12:01;;;;;;;8.35;4.75;;;;;;;10.20;100.00;97897.97;4991778;28;20046;-62
2023/05/26 03:14:28;;;;;;;8.50;4.93;;;;;;;10.17;100.00;97895.72;4994719;28;20137;-61
2023/05/26 03:16:56;;;;;;;11.25;5.47;;;;;;;10.08;100.00;97897.97;4985469;28;20034;-61
2023/05/26 03:19:22;;;;;;;8.73;5.28;;;;;;;9.95;100.00;97899.03;4996241;28;20042;-62
2023/05/26 03:21:49;;;;;;;11.32;5.00;;;;;;;9.85;100.00;97901.50;5003535;28;20050;-62
2023/05/26 03:24:16;;;;;;;8.82;4.97;;;;;;;9.93;100.00;97893.03;4989460;28;20045;-62
2023/05/26 03:26:43;;;;;;;13.38;5.75;;;;;;;9.96;100.00;97898.00;5000200;28;20053;-60
2023/05/26 03:29:11;;;;;;;9.27;5.65;;;;;;;9.89;100.00;97894.56;5001966;28;20049;-62
2023/05/26 03:31:38;;;;;;;8.32;5.15;;;;;;;9.65;100.00;97891.81;4997705;28;20048;-61
2023/05/26 03:34:05;;;;;;;11.07;5.95;;;;;;;9.63;100.00;97894.75;4990542;28;20058;-63
2023/05/26 03:36:31;;;;;;;11.30;5.25;;;;;;;9.69;100.00;97903.03;4998071;28;20676;-62
2023/05/26 03:39:10;;;;;;;9.85;5.05;;;;;;;9.71;100.00;97900.88;4997839;28;20050;-62
2023/05/26 03:41:36;;;;;;;11.10;5.85;;;;;;;9.65;100.00;97902.66;4987764;28;20065;-60
2023/05/26 03:44:04;;;;;;;9.95;5.75;;;;;;;9.58;100.00;97907.34;4990879;28;20046;-61
2023/05/26 03:46:31;;;;;;;10.65;5.68;;;;;;;9.64;100.00;97909.13;4994847;28;20042;-61
2023/05/26 03:48:58;;;;;;;10.80;5.38;;;;;;;9.58;100.00;97910.06;4996334;28;20046;-61
2023/05/26 03:51:25;;;;;;;10.48;5.13;;;;;;;9.59;100.00;97909.78;4996761;28;20049;-61
2023/05/26 03:53:52;;;;;;;7.70;5.32;;;;;;;9.59;100.00;97909.00;4989875;28;20046;-62
2023/05/26 03:56:18;;;;;;;8.55;5.28;;;;;;;9.75;100.00;97910.19;4992324;28;20046;-62
2023/05/26 03:58:45;;;;;;;8.85;5.50;;;;;;;9.74;100.00;97908.53;4996925;28;20041;-62
2023/05/26 04:01:12;;;;;;;9.68;5.60;;;;;;;9.70;100.00;97908.16;4997423;28;20039;-61
2023/05/26 04:03:39;;;;;;;11.25;5.25;;;;;;;9.61;100.00;97904.16;4991210;28;20062;-61
2023/05/26 04:06:11;;;;;;;10.73;5.75;;;;;;;9.66;100.00;97912.38;4995402;28;20042;-62
2023/05/26 04:08:37;;;;;;;10.80;5.10;;;;;;;9.76;100.00;97911.81;4995942;28;20165;-62
2023/05/26 04:11:04;;;;;;;12.07;5.55;;;;;;;9.84;100.00;97908.78;4991727;28;20084;-62
2023/05/26 04:13:32;;;;;;;14.45;5.78;;;;;;;9.89;100.00;97916.22;5000767;28;20050;-62
2023/05/26 04:15:59;;;;;;;10.23;5.28;;;;;;;9.79;100.00;97913.25;4996518;28;20066;-62
2023/05/26 04:18:26;;;;;;;9.20;4.70;;;;;;;9.88;100.00;97918.06;4985889;28;20508;-61
2023/05/26 04:20:52;;;;;;;11.73;5.72;;;;;;;9.89;100.00;97913.50;4999920;28;20056;-62
2023/05/26 04:23:19;;;;;;;13.00;6.00;;;;;;;9.93;100.00;97911.97;4996632;28;20057;-61
2023/05/26 04:25:48;;;;;;;12.82;7.28;;;;;;;9.91;100.00;97910.56;5004623;28;20043;-62
2023/05/26 04:28:24;;;;;;;9.85;5.60;;;;;;;9.77;100.00;97921.59;4990033;28;20068;-62
2023/05/26 04:31:03;;;;;;;10.45;5.13;;;;;;;9.79;100.00;97916.78;4995117;28;21064;-62
2023/05/26 04:33:47;;;;;;;12.40;5.55;;;;;;;9.91;100.00;97916.78;4992553;28;20161;-62
2023/05/26 04:36:29;;;;;;;15.23;6.30;;;;;;;9.98;100.00;97914.78;4983201;28;20038;-61
2023/05/26 04:38:57;;;;;;;10.52;5.80;;;;;;;9.96;100.00;97911.50;4998618;28;20049;-62
2023/05/26 04:41:23;;;;;;;12.05;5.57;;;;;;;9.74;100.00;97922.06;4994234;28;20513;-62
2023/05/26 04:43:50;;;;;;;10.45;5.90;;;;;;;9.72;100.00;97922.28;4995948;28;20054;-62
2023/05/26 04:46:17;;;;;;;10.88;5.85;;;;;;;9.83;100.00;97936.06;4989549;28;20050;-62
2023/05/26 04:48:43;;;;;;;12.20;6.13;;;;;;;10.02;100.00;97928.66;4987494;28;20054;-62
2023/05/26 04:51:10;;;;;;;13.70;6.53;;;;;;;10.18;100.00;97927.16;4991451;28;20103;-63
2023/05/26 04:53:37;;;;;;;12.40;6.20;;;;;;;10.21;100.00;97920.44;4990040;28;20057;-61
2023/05/26 04:56:06;;;;;;;13.68;6.20;;;;;;;10.11;100.00;97915.63;4992687;28;20077;-63
2023/05/26 04:58:38;;;;;;;8.90;5.53;;;;;;;10.27;100.00;97912.22;4990326;28;20042;-63
2023/05/26 05:01:04;;;;;;;11.00;6.90;;;;;;;10.43;100.00;97919.84;4992996;28;20078;-62
2023/05/26 05:03:42;;;;;;;11.88;5.60;;;;;;;10.50;100.00;97917.84;4994056;28;20041;-62
2023/05/26 05:06:15;;;;;;;11.82;5.60;;;;;;;10.57;100.00;97920.44;4992292;28;20038;-63
2023/05/26 05:08:42;;;;;;;9.75;5.53;;;;;;;10.62;100.00;97921.34;4993116;28;20141;-63
2023/05/26 05:11:09;;;;;;;13.15;5.47;;;;;;;10.74;100.00;97913.22;4991985;28;20129;-62
2023/05/26 05:13:35;;;;;;;12.55;6.63;;;;;;;10.84;98.68;97922.63;4998403;28;20057;-63
2023/05/26 05:16:03;;;;;;;11.00;5.55;;;;;;;10.97;97.31;97932.34;4992225;28;20042;-62
2023/05/26 05:18:30;;;;;;;11.60;6.13;;;;;;;11.15;94.24;97923.19;4985188;28;20152;-63
2023/05/26 05:20:57;;;;;;;11.82;5.88;;;;;;;11.34;94.19;97936.53;4991159;28;20486;-62
2023/05/26 05:23:23;;;;;;;7.57;5.22;;;;;;;11.50;92.41;97930.34;4982283;28;20054;-63
2023/05/26 05:25:50;;;;;;;10.07;6.18;;;;;;;11.68;90.64;97936.59;4995731;28;20590;-62
2023/05/26 05:28:18;;;;;;;10.90;5.47;;;;;;;11.90;86.95;97931.28;4984234;28;20042;-62
2023/05/26 05:30:57;;;;;;;13.63;5.55;;;;;;;12.10;85.48;97935.44;4990566;28;20509;-62
2023/05/26 05:33:27;;;;;;;11.85;6.13;;;;;;;12.23;84.37;97942.38;4998136;28;20133;-62
2023/05/26 05:35:54;;;;;;;9.93;5.68;;;;;;;12.27;83.98;97943.53;4986527;28;20047;-63
2023/05/26 05:38:22;;;;;;;12.88;5.68;;;;;;;12.32;83.70;97948.22;5000779;28;20456;-62
2023/05/26 05:40:49;;;;;;;13.50;6.25;;;;;;;12.36;83.80;97946.66;4998910;28;20144;-62
2023/05/26 05:43:15;;;;;;;14.20;6.70;;;;;;;12.48;83.09;97950.09;4992949;28;20053;-61
2023/05/26 05:45:42;;;;;;;13.93;6.07;;;;;;;12.44;82.37;97956.28;4987930;28;20042;-61
2023/05/26 05:48:29;;;;;;;11.23;5.40;;;;;;;12.53;82.61;97953.97;4998492;28;20074;-62
2023/05/26 05:51:01;;;;;;;11.30;5.35;;;;;;;12.56;82.20;97954.28;4985595;28;20071;-62
2023/05/26 05:53:28;;;;;;;10.73;5.93;;;;;;;12.58;82.58;97954.03;4985249;28;20038;-61
2023/05/26 05:55:54;;;;;;;12.80;6.15;;;;;;;12.63;82.27;97961.44;5001716;28;20074;-62
2023/05/26 05:58:21;;;;;;;14.40;5.78;;;;;;;12.69;82.13;97963.97;4993878;28;20077;-62
2023/05/26 06:00:47;;;;;;;10.50;5.50;;;;;;;12.68;82.38;97961.50;4992355;28;20042;-61
2023/05/26 06:03:14;;;;;;;14.13;6.40;;;;;;;12.79;82.11;97970.59;4997117;28;20585;-62
2023/05/26 06:05:41;;;;;;;10.68;5.93;;;;;;;12.84;81.59;97966.06;4990291;28;20054;-61
2023/05/26 06:08:07;;;;;;;11.90;6.00;;;;;;;12.83;82.13;97971.75;4992392;28;20137;-61
2023/05/26 06:10:34;;;;;;;11.95;6.07;;;;;;;12.98;81.82;97973.84;5001512;28;20529;-61
2023/05/26 06:13:01;;;;;;;13.38;6.05;;;;;;;13.00;80.99;97969.78;4996766;28;20084;-62
2023/05/26 06:15:27;;;;;;;12.73;6.25;;;;;;;13.08;80.96;97973.16;4999299;28;20037;-61
2023/05/26 06:17:54;;;;;;;10.00;6.10;;;;;;;13.12;81.15;97968.84;4992115;28;20480;-62
2023/05/26 06:20:22;;;;;;;11.85;6.72;;;;;;;13.23;81.75;97972.50;5000011;28;20042;-61
2023/05/26 06:22:50;;;;;;;9.90;5.78;;;;;;;13.27;80.27;97979.06;4997862;28;20509;-59
2023/05/26 06:25:16;;;;;;;10.57;5.85;;;;;;;13.36;80.91;97971.28;4990302;28;20058;-62
2023/05/26 06:27:43;;;;;;;10.73;5.82;;;;;;;13.35;80.81;97967.72;4992395;28;20172;-62
2023/05/26 06:30:11;;;;;;;13.88;6.53;;;;;;;13.32;80.52;97967.41;4997223;28;20162;-62
2023/05/26 06:32:38;;;;;;;12.07;5.57;;;;;;;13.35;80.86;97966.91;4993391;28;20417;-62
2023/05/26 06:35:05;;;;;;;10.73;6.10;;;;;;;13.49;80.21;97965.44;4995713;28;20238;-61
2023/05/26 06:37:32;;;;;;;11.85;6.43;;;;;;;13.52;79.83;97964.94;4987597;28;20619;-62
2023/05/26 06:39:59;;;;;;;11.82;5.68;;;;;;;13.73;79.60;97962.44;4988062;28;20117;-61
2023/05/26 06:42:32;;;;;;;13.65;6.40;;;;;;;13.78;78.61;97970.63;4991139;28;20116;-62
2023/05/26 06:44:58;;;;;;;11.43;5.57;;;;;;;13.83;78.09;97972.59;4999494;28;20088;-61
2023/05/26 06:47:25;;;;;;;13.73;6.18;;;;;;;13.75;79.09;97967.63;4990369;28;20038;-62
2023/05/26 06:50:06;;;;;;;9.05;5.93;;;;;;;13.91;79.17;97969.41;4992164;28;20571;-62
2023/05/26 06:52:33;;;;;;;11.32;6.35;;;;;;;13.97;77.30;97974.88;4998702;28;20034;-61
2023/05/26 06:54:59;;;;;;;13.15;5.82;;;;;;;14.02;76.26;97983.09;5001177;28;20597;-62
2023/05/26 06:57:26;;;;;;;9.68;5.68;;;;;;;13.97;77.07;97981.13;5007409;28;20049;-62
2023/05/26 06:59:53;;;;;;;9.45;5.80;;;;;;;14.06;75.78;97984.22;4998365;28;20046;-61
2023/05/26 07:02:19;;;;;;;10.50;5.68;;;;;;;14.11;75.37;97976.06;4993153;28;20053;-62
2023/05/26 07:04:47;;;;;;;11.15;5.95;;;;;;;14.11;75.08;97980.72;4990620;28;20820;-61
2023/05/26 07:07:14;;;;;;;12.88;6.40;;;;;;;14.03;74.76;97984.72;4989035;28;20073;-62
2023/05/26 07:09:41;;;;;;;13.18;6.45;;;;;;;13.96;76.56;97978.69;4995795;28;20501;-62
2023/05/26 07:12:11;;;;;;;9.93;5.95;;;;;;;14.07;75.72;97974.94;4989076;28;20544;-62
2023/05/26 07:14:46;;;;;;;11.73;5.57;;;;;;;14.18;74.91;97984.03;4988807;28;20136;-62
2023/05/26 07:17:14;;;;;;;12.02;5.22;;;;;;;14.33;73.99;97980.59;4989251;28;20536;-61
2023/05/26 07:19:43;;;;;;;12.90;6.22;;;;;;;14.27;74.86;97981.66;4992557;28;20046;-62
2023/05/26 07:22:10;;;;;;;10.50;5.25;;;;;;;14.47;74.75;97977.41;4991302;28;20116;-62
2023/05/26 07:24:46;;;;;;;12.15;6.20;;;;;;;14.44;73.37;97976.88;4996107;28;20046;-62
2023/05/26 07:27:20;;;;;;;12.77;6.65;;;;;;;14.59;73.88;97969.84;4986328;28;20043;-62
2023/05/26 07:29:46;;;;;;;13.38;6.03;;;;;;;14.81;72.47;97977.91;4998121;28;20049;-61
2023/05/26 07:32:13;;;;;;;11.07;6.07;;;;;;;14.79;70.70;97977.38;4992937;28;20068;-62
2023/05/26 07:34:42;;;;;;;13.10;5.45;;;;;;;14.79;69.79;97982.00;5002885;28;20070;-62
2023/05/26 07:37:09;;;;;;;12.60;6.15;;;;;;;14.99;70.28;97983.16;4989408;28;20529;-62
2023/05/26 07:39:36;;;;;;;12.77;6.15;;;;;;;15.00;69.78;97980.19;4995831;28;20045;-62
2023/05/26 07:42:02;;;;;;;12.68;6.13;;;;;;;15.08;71.19;97982.41;4999284;28;20205;-62
2023/05/26 07:44:29;;;;;;;14.07;6.38;;;;;;;15.26;70.27;97977.53;5003679;28;20656;-61
2023/05/26 07:46:55;;;;;;;10.27;6.05;;;;;;;15.15;70.04;97978.63;5004338;28;20045;-62
2023/05/26 07:49:22;;;;;;;15.45;6.05;;;;;;;15.21;71.00;97972.91;5000535;28;20049;-61
2023/05/26 07:51:48;;;;;;;14.13;6.35;;;;;;;15.33;70.93;97978.13;4996707;28;20057;-62
2023/05/26 07:54:15;;;;;;;11.35;5.72;;;;;;;15.48;70.18;97979.25;4990316;28;20057;-62
2023/05/26 07:56:41;;;;;;;10.30;6.55;;;;;;;15.51;69.34;97984.16;5001351;28;20416;-62
2023/05/26 07:59:08;;;;;;;12.18;6.88;;;;;;;15.54;69.99;97980.91;4991146;28;20042;-62
2023/05/26 08:01:34;;;;;;;10.18;6.50;;;;;;;15.49;68.23;97986.38;4972698;28;20046;-62
2023/05/26 08:04:01;;;;;;;11.73;6.38;;;;;;;15.42;69.16;97983.06;4972855;28;20131;-62
2023/05/26 08:06:28;;;;;;;11.27;7.35;;;;;;;15.36;69.65;97984.16;4998862;28;20084;-62
2023/05/26 08:08:55;;;;;;;11.20;6.72;;;;;;;15.43;71.00;97980.06;4994194;28;20060;-59
2023/05/26 08:11:22;;;;;;;11.45;6.32;;;;;;;15.61;70.50;97988.84;4996316;28;20674;-63
2023/05/26 08:13:49;;;;;;;15.63;7.63;;;;;;;15.70;70.06;97983.69;4998124;28;20206;-62
2023/05/26 08:16:16;;;;;;;12.25;6.35;;;;;;;15.76;69.37;97988.03;4994227;28;20128;-62
2023/05/26 08:18:42;;;;;;;9.60;5.85;;;;;;;15.83;67.99;97988.59;4998239;28;20053;-59
2023/05/26 08:21:09;;;;;;;10.75;6.20;;;;;;;15.86;67.98;97982.59;5000188;28;20046;-61
2023/05/26 08:23:37;;;;;;;11.18;6.10;;;;;;;15.82;67.50;97986.16;4994610;28;20054;-62
2023/05/26 08:26:03;;;;;;;18.73;7.65;;;;;;;15.86;67.55;97981.78;4989510;28;20057;-62
2023/05/26 08:28:30;;;;;;;13.88;6.10;;;;;;;15.94;68.39;97978.53;4985994;28;20042;-62
2023/05/26 08:30:56;;;;;;;12.77;6.47;;;;;;;16.01;68.06;97981.00;4986399;28;20624;-61
2023/05/26 08:33:23;;;;;;;9.93;5.88;;;;;;;16.07;67.22;97976.38;4993842;28;20042;-62
2023/05/26 08:35:49;;;;;;;11.20;6.30;;;;;;;16.34;67.00;97980.72;5004254;28;20058;-62
2023/05/26 08:38:17;;;;;;;17.13;6.72;;;;;;;16.56;66.54;97982.31;5002520;28;20048;-62
2023/05/26 08:40:43;;;;;;;12.30;5.85;;;;;;;16.63;65.49;97978.19;4992701;28;20049;-62
2023/05/26 08:43:13;;;;;;;13.90;5.57;;;;;;;16.66;63.14;97982.28;4991577;28;20054;-62
2023/05/26 08:45:42;;;;;;;12.15;5.85;;;;;;;16.69;63.02;97984.47;4996370;28;20060;-62
2023/05/26 08:48:11;;;;;;;14.40;6.30;;;;;;;16.62;62.97;97986.69;4993042;28;20074;-62
2023/05/26 08:50:37;;;;;;;11.80;5.85;;;;;;;16.68;64.65;97984.75;4988520;28;20041;-62
2023/05/26 08:53:04;;;;;;;11.75;6.45;;;;;;;16.68;64.15;97990.22;4994550;28;20054;-62
2023/05/26 08:55:50;;;;;;;11.25;6.20;;;;;;;16.67;64.88;97991.31;4995937;28;20073;-62
2023/05/26 08:58:19;;;;;;;11.23;6.50;;;;;;;16.70;64.89;97977.91;4987424;28;20077;-63
2023/05/26 09:00:45;;;;;;;12.20;5.50;;;;;;;16.87;65.06;97983.06;4994417;28;20042;-64
2023/05/26 09:03:12;;;;;;;10.63;6.55;;;;;;;16.87;64.59;97987.69;4994254;28;20085;-64
2023/05/26 09:05:39;;;;;;;11.90;6.82;;;;;;;16.84;64.70;97978.16;4988158;28;20049;-63
2023/05/26 09:08:06;;;;;;;13.73;6.50;;;;;;;16.92;65.93;97984.97;4987415;28;20042;-63
2023/05/26 09:10:33;;;;;;;10.63;5.85;;;;;;;16.96;64.61;97996.16;4997761;28;20052;-63
2023/05/26 09:13:13;;;;;;;12.15;6.38;;;;;;;17.13;63.70;97993.94;4995868;28;20104;-63
2023/05/26 09:15:40;;;;;;;11.20;5.35;;;;;;;17.18;63.53;97995.03;5000401;28;20057;-64
2023/05/26 09:18:07;;;;;;;12.35;6.07;;;;;;;17.23;62.16;97993.09;4994814;28;20109;-63
2023/05/26 09:20:41;;;;;;;13.80;5.93;;;;;;;17.25;62.09;97999.09;4987114;28;20057;-63
2023/05/26 09:23:09;;;;;;;13.32;6.07;;;;;;;17.31;62.43;98001.81;4995854;28;20049;-63
2023/05/26 09:25:38;;;;;;;14.23;5.32;;;;;;;17.42;61.07;98000.66;4982185;28;20046;-64
2023/05/26 09:28:06;;;;;;;12.23;6.35;;;;;;;17.43;62.39;98002.28;4988820;28;20042;-63
2023/05/26 09:30:38;;;;;;;13.25;6.32;;;;;;;17.39;61.67;98001.19;4986657;28;20042;-63
2023/05/26 09:33:07;;;;;;;12.52;6.05;;;;;;;17.52;62.58;97997.03;4994207;28;20429;-63
2023/05/26 09:35:35;;;;;;;12.48;5.75;;;;;;;17.67;61.60;98001.63;4965156;28;20046;-63
2023/05/26 09:38:03;;;;;;;11.57;6.38;;;;;;;17.67;60.99;97994.22;4990667;28;20047;-63
2023/05/26 09:40:29;;;;;;;11.43;6.03;;;;;;;17.79;59.42;97995.78;5000124;28;20056;-63
2023/05/26 09:42:56;;;;;;;13.75;5.88;;;;;;;17.81;60.27;97993.59;5000151;28;20050;-61
2023/05/26 09:45:23;;;;;;;13.32;6.63;;;;;;;17.83;60.33;97998.78;4968239;28;20938;-62
2023/05/26 09:47:55;;;;;;;12.88;6.72;;;;;;;17.76;61.81;97999.91;5002240;28;20045;-62
2023/05/26 09:50:23;;;;;;;13.48;6.68;;;;;;;17.78;60.93;98002.38;4996883;28;20081;-62
2023/05/26 09:52:49;;;;;;;11.10;6.57;;;;;;;17.75;61.50;98000.19;4985081;28;20608;-62
2023/05/26 09:55:17;;;;;;;13.88;6.50;;;;;;;17.92;62.30;98000.63;4997767;28;20053;-62
2023/05/26 09:57:45;;;;;;;13.52;7.45;;;;;;;18.01;60.37;98009.06;5003816;28;20609;-62
2023/05/26 10:00:16;;;;;;;13.18;6.75;;;;;;;18.02;60.07;98001.66;4998811;28;20054;-62
2023/05/26 10:02:44;;;;;;;10.25;6.47;;;;;;;17.94;60.35;98005.81;5004577;28;20125;-62
2023/05/26 10:05:12;;;;;;;10.75;6.35;;;;;;;17.92;61.57;98003.34;5001322;28;20602;-62
2023/05/26 10:07:41;;;;;;;12.98;5.97;;;;;;;18.22;60.16;97997.97;4997666;28;20042;-62
2023/05/26 10:10:11;;;;;;;12.80;6.65;;;;;;;18.36;59.06;98000.88;4995472;28;20049;-62
2023/05/26 10:12:38;;;;;;;12.52;6.55;;;;;;;18.27;59.31;97997.09;5001191;28;20124;-62
2023/05/26 10:15:05;;;;;;;11.90;6.22;;;;;;;18.37;58.15;97996.19;4998083;28;20046;-63
2023/05/26 10:17:31;;;;;;;12.77;6.35;;;;;;;18.38;58.65;98001.38;4992497;28;20034;-62
2023/05/26 10:20:00;;;;;;;12.90;7.20;;;;;;;18.31;58.54;97998.97;5001537;28;20050;-62
2023/05/26 10:22:33;;;;;;;9.95;5.72;;;;;;;18.31;58.77;98006.38;4999952;28;20049;-62
2023/05/26 10:25:11;;;;;;;12.13;5.25;;;;;;;18.52;56.95;97996.06;4998483;28;20050;-62
2023/05/26 10:27:53;;;;;;;13.23;5.97;;;;;;;18.47;57.15;97996.13;4996128;28;20041;-62
2023/05/26 10:30:20;;;;;;;10.75;5.90;;;;;;;18.57;56.29;98003.41;4991519;28;20795;-62
2023/05/26 10:32:48;;;;;;;12.40;6.18;;;;;;;18.31;57.78;97995.41;5001973;28;20050;-62
2023/05/26 10:35:31;;;;;;;9.50;5.45;;;;;;;18.38;57.94;97998.66;4999613;28;20046;-62
2023/05/26 10:38:03;;;;;;;11.48;5.95;;;;;;;18.46;56.98;97997.19;4992769;28;20053;-62
2023/05/26 10:40:33;;;;;;;9.27;5.68;;;;;;;18.54;56.28;98007.53;4996336;28;20041;-62
2023/05/26 10:43:21;;;;;;;10.38;5.97;;;;;;;18.58;56.53;98003.09;4993988;28;20050;-61
2023/05/26 10:45:57;;;;;;;9.30;5.85;;;;;;;18.67;57.00;98002.47;4993750;28;20058;-61
2023/05/26 10:48:32;;;;;;;9.07;5.60;;;;;;;18.72;56.21;97992.28;4998290;28;20053;-62
2023/05/26 10:50:59;;;;;;;9.65;4.65;;;;;;;18.75;58.73;97984.59;5002868;28;20425;-61
2023/05/26 10:53:31;;;;;;;12.82;5.80;;;;;;;18.94;57.18;97990.16;4994706;28;20053;-61
2023/05/26 10:56:02;;;;;;;12.43;5.80;;;;;;;18.86;57.14;97980.59;5001561;28;20560;-61
2023/05/26 10:58:29;;;;;;;;;;;;;;;18.95;54.83;97989.03;4995539;28;20101;-60
2023/05/26 11:01:13;;;;;;;9.60;4.30;;;;;;;19.00;54.70;97985.38;4993348;28;19932;-62
2023/05/26 11:03:42;;;;;;;8.82;5.18;;;;;;;19.31;53.20;97982.31;4987100;28;20056;-62
2023/05/26 11:06:15;;;;;;;6.90;4.25;;;;;;;19.34;52.31;97990.78;4994146;28;20050;-62
2023/05/26 11:08:47;;;;;;;8.68;5.13;;;;;;;19.29;52.10;97998.25;4995539;28;20051;-62
2023/05/26 11:11:29;;;;;;;8.07;4.18;;;;;;;19.21;51.58;97986.00;5000137;28;20049;-62
2023/05/26 11:14:09;;;;;;;8.98;4.05;;;;;;;19.28;52.13;97980.16;4996165;28;20052;-61
2023/05/26 11:16:38;;;;;;;8.48;4.80;;;;;;;19.14;51.92;97993.78;4987913;28;20124;-62
2023/05/26 11:19:07;;;;;;;11.55;4.47;;;;;;;19.21;52.24;97977.78;4993288;28;20727;-62
2023/05/26 11:21:35;;;;;;;10.50;5.10;;;;;;;19.47;51.97;97978.22;4995194;28;20631;-61
2023/05/26 11:24:03;;;;;;;10.65;4.80;;;;;;;19.54;51.27;97977.88;4994527;28;20043;-63
2023/05/26 11:26:32;;;;;;;9.88;4.57;;;;;;;19.75;50.56;97977.56;4990074;28;20041;-62
2023/05/26 11:29:03;;;;;;;8.27;4.18;;;;;;;19.89;49.94;97981.22;4986366;28;20133;-62
2023/05/26 11:31:30;;;;;;;9.35;3.78;;;;;;;19.95;50.64;97975.63;4997693;28;20573;-62
2023/05/26 11:34:00;;;;;;;7.90;4.53;;;;;;;19.83;49.80;97976.09;4995502;28;20038;-62
2023/05/26 11:36:28;;;;;;;8.63;4.25;;;;;;;19.92;50.39;97979.78;4993067;28;20047;-61